Time;durP1;ratioP1;P1;durP2;ratioP2;P2;SDS_P1;SDS_P2;PMS_P1;PMS_P2;Temp;Humidity;BMP_temperature;BMP_pressure;BME280_temperature;BME280_humidity;BME280_pressure;Samples;Min_cycle;Max_cycle;Signal;HPM_P1;HPM_P2
2023/10/25 00:02:09;;;;;;;7.00;4.85;;;9.70;99.90;;;;;;5014591;28;20233;-82
2023/10/25 00:04:35;;;;;;;7.32;4.90;;;9.70;99.90;;;;;;5015056;28;20187;-82
2023/10/25 00:07:01;;;;;;;8.02;5.28;;;9.70;99.90;;;;;;5014163;28;20266;-82
2023/10/25 00:09:27;;;;;;;4.82;4.38;;;9.60;99.90;;;;;;5014841;28;20195;-81
2023/10/25 00:11:54;;;;;;;6.72;4.63;;;9.60;99.90;;;;;;5013521;28;20567;-83
2023/10/25 00:14:19;;;;;;;5.20;4.40;;;9.60;99.90;;;;;;5013550;28;21084;-84
2023/10/25 00:16:45;;;;;;;4.80;4.28;;;9.60;99.90;;;;;;5011572;28;20274;-82
2023/10/25 00:19:11;;;;;;;6.47;4.65;;;9.60;99.90;;;;;;5013098;28;20195;-82
2023/10/25 00:21:37;;;;;;;6.93;4.75;;;9.60;99.90;;;;;;5012655;28;20268;-81
2023/10/25 00:24:02;;;;;;;5.63;5.05;;;9.60;99.90;;;;;;5029993;28;20214;-82
2023/10/25 00:26:28;;;;;;;12.18;4.75;;;9.60;99.90;;;;;;5012536;28;20703;-82
2023/10/25 00:28:54;;;;;;;5.68;4.85;;;9.60;99.90;;;;;;5014594;28;20630;-82
2023/10/25 00:31:20;;;;;;;5.85;4.80;;;9.60;99.90;;;;;;5013694;28;20187;-82
2023/10/25 00:33:45;;;;;;;7.85;4.72;;;9.70;99.90;;;;;;5023376;28;20271;-84
2023/10/25 00:36:11;;;;;;;6.15;5.35;;;9.60;99.90;;;;;;5012422;28;20186;-82
2023/10/25 00:38:37;;;;;;;4.85;4.45;;;9.60;99.90;;;;;;5013152;28;20688;-82
2023/10/25 00:41:02;;;;;;;5.32;4.82;;;9.70;99.90;;;;;;5023770;28;20186;-82
2023/10/25 00:43:28;;;;;;;5.72;5.05;;;9.60;99.90;;;;;;5023266;28;20238;-82
2023/10/25 00:46:21;;;;;;;5.50;5.00;;;9.60;99.90;;;;;;5011529;28;20242;-81
2023/10/25 00:48:48;;;;;;;5.43;4.85;;;9.70;99.90;;;;;;5008104;28;20175;-82
2023/10/25 00:51:16;;;;;;;10.70;5.85;;;9.60;99.90;;;;;;5013575;28;20209;-81
2023/10/25 00:53:46;;;;;;;5.88;5.15;;;9.60;99.90;;;;;;5015214;28;20187;-82
2023/10/25 00:56:12;;;;;;;7.00;5.72;;;9.60;99.90;;;;;;5011395;28;20318;-82
2023/10/25 00:58:43;;;;;;;6.10;5.50;;;9.60;99.90;;;;;;5011903;28;20270;-82
2023/10/25 01:01:10;;;;;;;7.20;5.85;;;9.60;99.90;;;;;;5013070;28;20553;-82
2023/10/25 01:03:35;;;;;;;9.48;6.13;;;9.60;99.90;;;;;;5012266;28;20222;-83
2023/10/25 01:06:04;;;;;;;10.98;5.78;;;9.60;99.90;;;;;;5012259;28;20254;-84
2023/10/25 01:08:30;;;;;;;6.82;5.90;;;9.60;99.90;;;;;;5013579;28;20211;-83
2023/10/25 01:10:57;;;;;;;6.38;5.78;;;9.60;99.90;;;;;;5013252;28;20653;-82
2023/10/25 01:13:23;;;;;;;8.07;6.57;;;9.60;99.90;;;;;;5012445;28;20194;-82
2023/10/25 01:15:48;;;;;;;7.72;6.32;;;9.50;99.90;;;;;;5010857;28;20568;-82
2023/10/25 01:18:15;;;;;;;7.03;6.32;;;9.50;99.90;;;;;;5013865;28;20513;-84
2023/10/25 01:20:42;;;;;;;7.93;6.10;;;9.50;99.90;;;;;;5013089;28;20185;-82
2023/10/25 01:23:08;;;;;;;7.95;6.22;;;9.50;99.90;;;;;;5012701;28;20203;-82
2023/10/25 01:25:34;;;;;;;8.40;6.03;;;9.50;99.90;;;;;;5002730;28;20274;-81
2023/10/25 01:28:01;;;;;;;6.45;5.53;;;9.50;99.90;;;;;;5012433;28;20187;-84
2023/10/25 01:30:27;;;;;;;6.85;5.80;;;9.50;99.90;;;;;;5018817;28;20268;-83
2023/10/25 01:32:53;;;;;;;7.63;5.65;;;9.50;99.90;;;;;;5015711;28;20210;-83
2023/10/25 01:35:19;;;;;;;7.63;5.72;;;9.50;99.90;;;;;;5031747;28;20183;-84
2023/10/25 01:37:45;;;;;;;10.40;5.60;;;9.60;99.90;;;;;;5016502;28;20243;-82
2023/10/25 01:40:11;;;;;;;7.95;5.38;;;9.60;99.90;;;;;;5017016;28;20261;-82
2023/10/25 01:42:37;;;;;;;11.57;5.90;;;9.60;99.90;;;;;;5016435;28;20187;-83
2023/10/25 01:45:03;;;;;;;8.35;5.13;;;9.60;99.90;;;;;;5014488;28;20610;-81
2023/10/25 01:47:29;;;;;;;7.32;5.30;;;9.60;99.90;;;;;;5014729;28;20590;-82
2023/10/25 01:49:55;;;;;;;7.40;5.70;;;9.60;99.90;;;;;;5017501;28;20225;-83
2023/10/25 01:52:20;;;;;;;11.05;5.63;;;9.60;99.90;;;;;;5016218;28;20285;-82
2023/10/25 01:54:50;;;;;;;8.57;5.50;;;9.60;99.90;;;;;;5030043;28;20183;-82
2023/10/25 01:57:18;;;;;;;7.30;5.40;;;9.60;99.90;;;;;;5014542;28;20219;-83
2023/10/25 01:59:44;;;;;;;10.85;5.15;;;9.60;99.90;;;;;;5031738;28;20187;-82
2023/10/25 02:02:11;;;;;;;6.82;5.18;;;9.60;99.90;;;;;;5014598;28;20279;-83
2023/10/25 02:04:36;;;;;;;8.02;4.72;;;9.60;99.90;;;;;;5017242;28;20179;-82
2023/10/25 02:07:02;;;;;;;6.93;5.43;;;9.60;99.90;;;;;;5014982;28;20190;-82
2023/10/25 02:09:29;;;;;;;7.78;5.50;;;9.60;99.90;;;;;;5015716;28;20207;-83
2023/10/25 02:11:55;;;;;;;8.07;5.10;;;9.60;99.90;;;;;;5014774;28;20631;-82
2023/10/25 02:14:21;;;;;;;6.50;4.88;;;9.60;99.90;;;;;;5017075;28;20321;-81
2023/10/25 02:16:47;;;;;;;6.32;5.72;;;9.60;99.90;;;;;;5014459;28;20187;-81
2023/10/25 02:22:12;;;;;;;8.77;5.50;;;9.50;99.90;;;;;;5355524;23;20235;-80
2023/10/25 02:24:38;;;;;;;11.70;6.38;;;9.60;99.90;;;;;;5032345;28;20202;-80
2023/10/25 02:27:03;;;;;;;10.13;6.25;;;9.60;99.90;;;;;;5016654;28;20179;-79
2023/10/25 02:29:31;;;;;;;6.10;5.47;;;9.50;99.90;;;;;;5014984;28;20872;-80
2023/10/25 02:31:57;;;;;;;9.13;5.68;;;9.50;99.90;;;;;;5022448;28;20270;-80
2023/10/25 02:34:22;;;;;;;10.52;6.15;;;9.50;99.90;;;;;;5015952;28;20740;-84
2023/10/25 02:36:48;;;;;;;7.72;5.90;;;9.50;99.90;;;;;;5015475;28;20187;-80
2023/10/25 02:39:14;;;;;;;6.88;5.82;;;9.50;99.90;;;;;;5015382;28;20258;-80
2023/10/25 02:41:39;;;;;;;7.82;5.93;;;9.50;99.90;;;;;;5015598;28;20183;-80
2023/10/25 02:44:05;;;;;;;7.72;5.88;;;9.50;99.90;;;;;;5016109;28;20187;-80
2023/10/25 02:46:31;;;;;;;7.60;6.13;;;9.60;99.90;;;;;;5016147;28;20241;-81
2023/10/25 02:48:56;;;;;;;7.93;6.25;;;9.50;99.90;;;;;;5016096;28;20183;-80
2023/10/25 02:51:22;;;;;;;8.02;6.55;;;9.50;99.90;;;;;;5020685;28;20258;-80
2023/10/25 02:53:48;;;;;;;8.40;5.88;;;9.50;99.90;;;;;;5015664;28;20214;-80
2023/10/25 02:56:13;;;;;;;9.90;6.35;;;9.50;99.90;;;;;;5029728;28;20187;-80
2023/10/25 02:58:39;;;;;;;11.75;6.47;;;9.50;99.90;;;;;;5020042;28;20511;-80
2023/10/25 03:01:05;;;;;;;8.05;6.45;;;9.50;99.90;;;;;;5019272;28;20253;-80
2023/10/25 03:03:32;;;;;;;7.60;6.03;;;9.50;99.90;;;;;;5014249;28;20241;-82
2023/10/25 03:05:59;;;;;;;7.40;6.25;;;9.50;99.90;;;;;;5014913;28;20626;-79
2023/10/25 03:08:26;;;;;;;7.93;6.32;;;9.50;99.90;;;;;;5015330;28;20191;-80
2023/10/25 03:10:52;;;;;;;6.97;6.20;;;9.50;99.90;;;;;;5014169;28;20658;-80
2023/10/25 03:13:18;;;;;;;7.03;5.95;;;9.50;99.90;;;;;;5031284;28;20195;-81
2023/10/25 03:15:44;;;;;;;9.40;6.45;;;9.50;99.90;;;;;;5031458;28;20182;-81
2023/10/25 03:18:10;;;;;;;12.52;7.32;;;9.50;99.90;;;;;;5015315;28;20210;-79
2023/10/25 03:20:36;;;;;;;8.15;6.20;;;9.50;99.90;;;;;;5013728;28;20213;-81
2023/10/25 03:23:02;;;;;;;6.80;6.10;;;9.50;99.90;;;;;;5014666;28;20202;-79
2023/10/25 03:25:27;;;;;;;6.93;6.22;;;9.50;99.90;;;;;;5015766;28;20180;-80
2023/10/25 03:27:53;;;;;;;7.72;6.75;;;9.50;99.90;;;;;;5014969;28;20199;-81
2023/10/25 03:30:19;;;;;;;8.25;6.47;;;9.60;99.90;;;;;;5009694;28;20219;-79
2023/10/25 03:32:45;;;;;;;7.93;6.18;;;9.50;99.90;;;;;;5017501;28;20613;-80
2023/10/25 03:35:11;;;;;;;10.20;6.30;;;9.50;99.90;;;;;;5018645;28;20270;-81
2023/10/25 03:37:40;;;;;;;12.98;7.05;;;9.50;99.90;;;;;;5013095;28;20183;-81
2023/10/25 03:40:10;;;;;;;8.43;6.32;;;9.50;99.90;;;;;;5014531;28;20266;-81
2023/10/25 03:42:36;;;;;;;7.45;6.53;;;9.50;99.90;;;;;;5014518;28;20527;-79
2023/10/25 03:45:03;;;;;;;9.98;6.53;;;9.40;99.90;;;;;;5012567;28;20245;-81
2023/10/25 03:47:28;;;;;;;11.30;6.32;;;9.40;99.90;;;;;;5014243;28;20195;-80
2023/10/25 03:49:54;;;;;;;10.82;6.78;;;9.40;99.90;;;;;;5014894;28;20298;-81
2023/10/25 03:52:20;;;;;;;8.30;5.78;;;9.40;99.90;;;;;;5013880;28;20242;-79
2023/10/25 03:54:46;;;;;;;11.90;6.43;;;9.40;99.90;;;;;;5013714;28;20218;-80
2023/10/25 03:57:11;;;;;;;7.97;6.85;;;9.40;99.90;;;;;;5015372;28;20515;-80
2023/10/25 03:59:37;;;;;;;7.75;6.38;;;9.40;99.90;;;;;;5014659;28;20184;-81
2023/10/25 04:02:03;;;;;;;9.27;7.25;;;9.40;99.90;;;;;;5015520;28;20195;-80
2023/10/25 04:04:29;;;;;;;8.82;7.30;;;9.40;99.90;;;;;;5030581;28;20256;-81
2023/10/25 04:06:56;;;;;;;8.75;6.65;;;9.40;99.90;;;;;;5030056;28;20337;-81
2023/10/25 04:09:21;;;;;;;9.18;7.15;;;9.40;99.90;;;;;;5012951;28;20218;-80
2023/10/25 04:11:47;;;;;;;7.63;6.65;;;9.40;99.90;;;;;;5015102;28;20219;-81
2023/10/25 04:14:12;;;;;;;10.77;6.95;;;9.30;99.90;;;;;;5014030;28;20242;-80
2023/10/25 04:16:38;;;;;;;10.43;7.03;;;9.30;99.90;;;;;;5013859;28;20183;-81
2023/10/25 04:19:04;;;;;;;9.35;7.22;;;9.30;99.90;;;;;;5026730;28;20210;-81
2023/10/25 04:21:30;;;;;;;8.80;7.55;;;9.30;99.90;;;;;;5014428;28;20231;-80
2023/10/25 04:23:55;;;;;;;9.88;7.60;;;9.30;99.90;;;;;;5014463;28;20268;-80
2023/10/25 04:26:21;;;;;;;9.15;6.90;;;9.30;99.90;;;;;;5029611;28;20195;-80
2023/10/25 04:28:47;;;;;;;10.55;7.40;;;9.30;99.90;;;;;;5013994;28;20271;-80
2023/10/25 04:31:12;;;;;;;11.23;7.60;;;9.30;99.90;;;;;;5030076;28;20223;-80
2023/10/25 04:33:39;;;;;;;9.05;7.07;;;9.30;99.90;;;;;;5012017;28;20194;-80
2023/10/25 04:36:05;;;;;;;7.47;6.25;;;9.30;99.90;;;;;;5013221;28;20186;-80
2023/10/25 04:38:32;;;;;;;8.68;6.50;;;9.30;99.90;;;;;;5011435;28;20180;-79
2023/10/25 04:40:57;;;;;;;9.23;6.28;;;9.30;99.90;;;;;;5009878;28;20191;-80
2023/10/25 04:43:23;;;;;;;10.15;7.10;;;9.20;99.90;;;;;;5012814;28;20281;-81
2023/10/25 04:45:51;;;;;;;9.52;6.10;;;9.20;99.90;;;;;;5014591;28;20187;-80
2023/10/25 04:48:17;;;;;;;8.57;6.70;;;9.30;99.90;;;;;;5028713;28;20203;-81
2023/10/25 04:50:43;;;;;;;7.43;6.30;;;9.30;99.90;;;;;;5004897;28;20770;-81
2023/10/25 04:53:09;;;;;;;10.05;6.53;;;9.20;99.90;;;;;;5030437;28;20186;-79
2023/10/25 04:55:36;;;;;;;8.82;6.82;;;9.20;99.90;;;;;;5007171;28;20187;-80
2023/10/25 04:58:03;;;;;;;10.90;6.30;;;9.30;99.90;;;;;;5011065;28;20563;-81
2023/10/25 05:00:29;;;;;;;10.70;6.85;;;9.20;99.90;;;;;;5014066;28;20190;-79
2023/10/25 05:02:56;;;;;;;8.75;6.65;;;9.20;99.90;;;;;;5012901;28;20191;-80
2023/10/25 05:05:22;;;;;;;9.18;7.20;;;9.20;99.90;;;;;;5013836;28;20183;-80
2023/10/25 05:07:48;;;;;;;9.18;6.80;;;9.20;99.90;;;;;;5012492;28;20249;-80
2023/10/25 05:10:14;;;;;;;10.32;7.00;;;9.20;99.90;;;;;;5012805;28;20223;-81
2023/10/25 05:12:42;;;;;;;8.23;6.78;;;9.20;99.90;;;;;;5013763;28;20241;-80
2023/10/25 05:15:09;;;;;;;8.93;6.43;;;9.20;99.90;;;;;;5014262;28;20277;-81
2023/10/25 05:17:35;;;;;;;9.75;6.65;;;9.20;99.90;;;;;;5010780;28;20175;-81
2023/10/25 05:20:05;;;;;;;13.25;6.82;;;9.20;99.90;;;;;;5013042;28;20245;-79
2023/10/25 05:22:35;;;;;;;10.63;6.15;;;9.20;99.90;;;;;;5013241;28;20293;-81
2023/10/25 05:25:02;;;;;;;7.00;6.07;;;9.20;99.90;;;;;;5013707;28;20229;-80
2023/10/25 05:27:28;;;;;;;7.05;5.68;;;9.20;99.90;;;;;;5013628;28;20183;-80
2023/10/25 05:29:54;;;;;;;7.63;5.57;;;9.20;99.90;;;;;;5013138;28;20621;-80
2023/10/25 05:32:21;;;;;;;11.65;6.32;;;9.20;99.90;;;;;;5009266;28;20270;-79
2023/10/25 05:34:48;;;;;;;7.55;6.10;;;9.10;99.90;;;;;;5010985;28;20203;-79
2023/10/25 05:37:15;;;;;;;7.45;6.22;;;9.10;99.90;;;;;;5011986;28;20578;-80
2023/10/25 05:39:42;;;;;;;11.70;6.32;;;9.10;99.90;;;;;;5021898;28;20187;-81
2023/10/25 05:42:11;;;;;;;12.00;6.57;;;9.00;99.90;;;;;;5011260;28;20187;-80
2023/10/25 05:44:37;;;;;;;8.40;5.90;;;9.00;99.90;;;;;;5011813;28;20191;-81
2023/10/25 05:47:03;;;;;;;9.27;6.00;;;9.00;99.90;;;;;;5028667;28;20187;-79
2023/10/25 05:49:29;;;;;;;6.80;5.90;;;9.00;99.90;;;;;;5028436;28;20781;-83
2023/10/25 05:51:55;;;;;;;9.52;6.45;;;9.00;99.90;;;;;;5011869;28;20237;-80
2023/10/25 05:54:20;;;;;;;11.32;5.97;;;9.00;99.90;;;;;;5011992;28;20527;-82
2023/10/25 05:56:47;;;;;;;8.80;5.97;;;9.00;99.90;;;;;;5013475;28;20648;-80
2023/10/25 05:59:13;;;;;;;9.32;6.28;;;8.90;99.90;;;;;;5028660;28;20257;-80
2023/10/25 06:01:49;;;;;;;8.75;6.05;;;8.90;99.90;;;;;;5011853;28;20194;-79
2023/10/25 06:04:15;;;;;;;10.63;6.25;;;8.90;99.90;;;;;;5012419;28;20179;-80
2023/10/25 06:06:43;;;;;;;9.25;5.72;;;8.90;99.90;;;;;;5013025;28;20187;-80
2023/10/25 06:09:10;;;;;;;12.27;6.13;;;8.90;99.90;;;;;;5013422;28;20258;-80
2023/10/25 06:11:37;;;;;;;8.30;5.72;;;8.90;99.90;;;;;;5026756;28;20202;-79
2023/10/25 06:14:03;;;;;;;9.02;6.03;;;8.90;99.90;;;;;;5008941;28;20267;-80
2023/10/25 06:16:29;;;;;;;9.55;5.60;;;8.90;99.90;;;;;;5011560;28;20199;-79
2023/10/25 06:18:55;;;;;;;6.53;5.22;;;8.80;99.90;;;;;;5014822;28;20516;-79
2023/10/25 06:21:20;;;;;;;11.23;6.18;;;8.90;99.90;;;;;;5015015;28;20227;-79
2023/10/25 06:23:46;;;;;;;10.90;5.85;;;8.80;99.90;;;;;;5010656;28;20202;-80
2023/10/25 06:26:13;;;;;;;9.93;6.22;;;8.80;99.90;;;;;;5014389;28;20632;-80
2023/10/25 06:28:38;;;;;;;8.43;5.22;;;8.80;99.90;;;;;;5022160;28;20630;-80
2023/10/25 06:31:05;;;;;;;8.93;5.50;;;8.80;99.90;;;;;;5015284;28;20277;-80
2023/10/25 06:33:31;;;;;;;10.18;5.20;;;8.80;99.90;;;;;;5024673;28;20191;-81
2023/10/25 06:36:00;;;;;;;6.32;5.22;;;8.80;99.90;;;;;;5031852;28;20183;-80
2023/10/25 06:38:26;;;;;;;8.90;5.00;;;8.80;99.90;;;;;;5015697;28;20187;-82
2023/10/25 06:40:52;;;;;;;7.40;5.53;;;8.80;99.90;;;;;;5031779;28;20342;-81
2023/10/25 06:43:18;;;;;;;9.15;5.30;;;8.80;99.90;;;;;;5014585;28;20278;-79
2023/10/25 06:45:46;;;;;;;9.82;5.60;;;8.80;99.90;;;;;;5031495;28;20190;-81
2023/10/25 06:48:12;;;;;;;8.82;5.20;;;8.70;99.90;;;;;;5031785;28;20195;-82
2023/10/25 06:50:38;;;;;;;7.43;5.43;;;8.70;99.90;;;;;;5015155;28;20218;-80
2023/10/25 06:53:04;;;;;;;7.00;5.15;;;8.70;99.90;;;;;;5023994;28;20185;-80
2023/10/25 06:55:30;;;;;;;6.65;5.28;;;8.70;99.90;;;;;;5017063;28;20197;-80
2023/10/25 06:57:56;;;;;;;6.82;5.30;;;8.80;99.90;;;;;;5029497;28;20179;-80
2023/10/25 07:00:22;;;;;;;8.40;4.95;;;8.80;99.90;;;;;;5031264;28;20195;-80
2023/10/25 07:02:59;;;;;;;7.18;4.82;;;8.80;99.90;;;;;;5014716;28;20265;-81
2023/10/25 07:05:24;;;;;;;7.75;4.80;;;8.80;99.90;;;;;;5024315;28;20183;-81
2023/10/25 07:07:52;;;;;;;11.18;4.63;;;8.80;99.90;;;;;;5015885;28;20206;-79
2023/10/25 07:10:18;;;;;;;6.38;4.47;;;8.80;99.90;;;;;;5015863;28;20230;-80
2023/10/25 07:12:45;;;;;;;6.28;4.68;;;8.90;99.90;;;;;;5012355;28;20622;-80
2023/10/25 07:15:11;;;;;;;6.95;4.78;;;8.90;99.90;;;;;;5014631;28;20282;-80
2023/10/25 07:17:38;;;;;;;6.45;4.72;;;8.90;99.90;;;;;;5014942;28;20685;-80
2023/10/25 07:20:05;;;;;;;7.20;4.38;;;8.90;99.90;;;;;;5031088;28;20194;-80
2023/10/25 07:22:31;;;;;;;7.20;4.72;;;9.00;99.90;;;;;;5019048;28;20866;-80
2023/10/25 07:24:56;;;;;;;5.53;4.57;;;9.10;99.90;;;;;;5015567;28;20214;-80
2023/10/25 07:27:23;;;;;;;6.57;4.38;;;9.10;99.90;;;;;;5014296;28;20179;-80
2023/10/25 07:29:49;;;;;;;8.13;4.32;;;9.20;99.90;;;;;;5013376;28;20239;-80
2023/10/25 07:32:15;;;;;;;4.90;4.00;;;9.30;99.90;;;;;;5013808;28;20187;-79
2023/10/25 07:34:42;;;;;;;7.93;4.38;;;9.40;99.90;;;;;;5029524;28;20214;-80
2023/10/25 07:37:08;;;;;;;8.52;4.22;;;9.50;99.90;;;;;;5014321;28;20502;-79
2023/10/25 07:39:33;;;;;;;7.70;4.32;;;9.60;99.90;;;;;;5022220;28;20295;-79
2023/10/25 07:42:01;;;;;;;8.25;4.13;;;9.70;99.90;;;;;;5026223;28;20568;-81
2023/10/25 07:44:29;;;;;;;5.85;4.15;;;9.70;99.90;;;;;;5024246;28;20183;-82
2023/10/25 07:46:55;;;;;;;8.30;4.38;;;9.80;99.90;;;;;;5025281;28;20640;-81
2023/10/25 07:49:21;;;;;;;6.07;3.97;;;9.90;99.90;;;;;;5014152;28;20195;-83
2023/10/25 07:51:47;;;;;;;5.28;3.75;;;9.90;99.90;;;;;;5015485;28;20179;-81
2023/10/25 07:54:13;;;;;;;6.65;3.97;;;10.00;99.90;;;;;;5014405;28;20529;-80
2023/10/25 07:56:39;;;;;;;5.20;4.38;;;10.00;99.90;;;;;;5018447;28;20244;-81
2023/10/25 07:59:05;;;;;;;6.43;3.72;;;10.10;99.90;;;;;;5021297;28;20183;-82
2023/10/25 08:01:30;;;;;;;10.85;4.25;;;10.10;99.90;;;;;;5018385;28;20187;-83
2023/10/25 08:03:56;;;;;;;10.48;4.47;;;10.30;99.90;;;;;;5026051;28;20565;-83
2023/10/25 08:06:22;;;;;;;7.32;4.22;;;10.30;99.90;;;;;;5008244;28;20257;-81
2023/10/25 08:08:50;;;;;;;6.88;3.92;;;10.30;99.90;;;;;;5019919;28;20282;-80
2023/10/25 08:11:16;;;;;;;5.88;4.25;;;10.40;99.90;;;;;;5015119;28;20211;-81
2023/10/25 08:13:45;;;;;;;8.13;4.47;;;10.40;99.90;;;;;;5014599;28;20255;-81
2023/10/25 08:16:10;;;;;;;6.50;4.10;;;10.40;99.90;;;;;;5008296;28;20198;-81
2023/10/25 08:18:36;;;;;;;7.22;4.28;;;10.40;99.90;;;;;;5014992;28;20258;-81
2023/10/25 08:21:02;;;;;;;8.38;4.55;;;10.50;99.90;;;;;;5014887;28;20217;-81
2023/10/25 08:23:29;;;;;;;7.55;4.00;;;10.50;99.90;;;;;;5012616;28;20691;-81
2023/10/25 08:25:59;;;;;;;12.52;4.40;;;10.60;99.90;;;;;;5013382;28;20270;-82
2023/10/25 08:28:25;;;;;;;7.93;4.32;;;10.60;99.90;;;;;;5015676;28;20194;-82
2023/10/25 08:30:51;;;;;;;6.75;4.30;;;10.60;99.90;;;;;;5019915;28;20211;-82
2023/10/25 08:33:16;;;;;;;6.90;3.92;;;10.70;99.90;;;;;;5012836;28;20187;-81
2023/10/25 08:35:43;;;;;;;8.60;4.03;;;10.70;99.90;;;;;;5013631;28;20191;-80
2023/10/25 08:38:10;;;;;;;5.18;3.60;;;10.80;99.90;;;;;;5009796;28;20186;-80
2023/10/25 08:40:40;;;;;;;7.28;3.72;;;10.90;99.90;;;;;;5017018;28;20190;-80
2023/10/25 08:43:05;;;;;;;5.13;3.50;;;10.90;99.90;;;;;;5017103;28;20187;-81
2023/10/25 08:45:37;;;;;;;8.00;3.40;;;10.90;99.90;;;;;;5020825;28;20194;-81
2023/10/25 08:48:04;;;;;;;9.02;3.42;;;11.00;99.90;;;;;;5013152;28;20239;-81
2023/10/25 08:50:32;;;;;;;5.38;3.58;;;11.00;99.90;;;;;;5012691;28;20223;-80
2023/10/25 08:52:59;;;;;;;5.72;2.88;;;11.10;99.90;;;;;;5013870;28;20482;-81
2023/10/25 08:55:25;;;;;;;8.25;2.78;;;11.10;99.90;;;;;;5013147;28;20626;-80
2023/10/25 08:57:55;;;;;;;3.55;2.65;;;11.20;99.90;;;;;;5012747;28;20537;-81
2023/10/25 09:00:22;;;;;;;5.13;2.60;;;11.20;99.90;;;;;;5012924;28;20187;-80
2023/10/25 09:02:49;;;;;;;4.07;2.95;;;11.30;99.90;;;;;;5022224;28;20181;-81
2023/10/25 09:05:14;;;;;;;6.65;2.83;;;11.30;99.90;;;;;;5012878;28;20640;-81
2023/10/25 09:07:40;;;;;;;4.78;2.67;;;11.40;99.90;;;;;;5021901;28;20187;-81
2023/10/25 09:10:15;;;;;;;8.05;2.95;;;11.50;99.90;;;;;;5012811;28;20219;-81
2023/10/25 09:12:41;;;;;;;3.97;2.60;;;11.50;99.90;;;;;;5005454;28;20186;-83
2023/10/25 09:15:08;;;;;;;9.50;3.05;;;11.60;99.90;;;;;;5013198;28;20215;-82
2023/10/25 09:17:36;;;;;;;5.82;2.35;;;11.70;99.90;;;;;;5011566;28;20196;-80
2023/10/25 09:20:06;;;;;;;3.53;2.08;;;11.80;99.90;;;;;;5013337;28;20621;-81
2023/10/25 09:22:32;;;;;;;7.18;2.25;;;11.90;99.90;;;;;;5013338;28;20234;-81
2023/10/25 09:25:00;;;;;;;5.90;2.15;;;11.90;99.90;;;;;;5024360;28;20190;-80
2023/10/25 09:27:26;;;;;;;3.75;2.30;;;12.00;99.90;;;;;;5008226;28;20237;-81
2023/10/25 09:29:53;;;;;;;8.18;2.53;;;12.00;99.90;;;;;;5018217;28;20552;-81
2023/10/25 09:32:20;;;;;;;9.27;2.40;;;12.10;99.90;;;;;;5009034;28;20187;-81
2023/10/25 09:34:49;;;;;;;5.50;2.03;;;12.20;99.90;;;;;;5011483;28;20232;-81
2023/10/25 09:37:15;;;;;;;3.85;1.48;;;12.20;99.90;;;;;;5008165;28;20179;-80
2023/10/25 09:39:41;;;;;;;7.47;2.00;;;12.30;99.90;;;;;;5012335;28;20194;-82
2023/10/25 09:42:13;;;;;;;4.82;2.13;;;12.30;99.90;;;;;;5028411;28;20199;-82
2023/10/25 09:44:48;;;;;;;7.63;2.33;;;12.40;99.90;;;;;;5023579;28;20523;-81
2023/10/25 09:47:17;;;;;;;6.45;2.40;;;12.50;99.90;;;;;;5014714;28;20217;-82
2023/10/25 09:49:44;;;;;;;8.25;3.05;;;12.50;99.90;;;;;;5012273;28;20302;-82
2023/10/25 09:52:18;;;;;;;8.07;2.83;;;12.60;99.90;;;;;;5012152;28;20191;-81
2023/10/25 09:54:52;;;;;;;5.55;2.47;;;12.60;99.90;;;;;;5009796;28;20187;-82
2023/10/25 09:57:19;;;;;;;9.80;2.50;;;12.60;99.90;;;;;;5015902;28;20602;-79
2023/10/25 09:59:46;;;;;;;4.15;2.00;;;12.70;99.90;;;;;;5025228;28;20233;-82
2023/10/25 10:02:23;;;;;;;3.90;1.80;;;12.70;99.90;;;;;;5019612;28;20183;-81
2023/10/25 10:05:00;;;;;;;4.72;1.65;;;12.80;99.90;;;;;;5019577;28;20642;-82
2023/10/25 10:07:45;;;;;;;5.07;2.00;;;12.80;99.90;;;;;;5028232;28;20186;-82
2023/10/25 10:10:27;;;;;;;6.20;2.10;;;12.90;99.90;;;;;;5023065;28;20207;-82
2023/10/25 10:12:52;;;;;;;5.15;2.50;;;12.90;99.90;;;;;;5020787;28;20191;-84
2023/10/25 10:15:19;;;;;;;5.45;2.53;;;12.90;99.90;;;;;;5016366;28;20186;-82
2023/10/25 10:17:45;;;;;;;5.15;2.15;;;13.00;99.90;;;;;;5014075;28;20214;-81
2023/10/25 10:20:49;;;;;;;7.53;2.10;;;13.10;99.90;;;;;;5024982;28;20625;-89
2023/10/25 10:23:34;;;;;;;3.50;1.70;;;13.10;99.90;;;;;;5020533;28;20565;-96
2023/10/25 10:26:01;;;;;;;4.32;1.45;;;13.20;99.90;;;;;;5026567;28;20563;-91
2023/10/25 10:28:38;;;;;;;5.43;1.85;;;13.20;99.90;;;;;;5021021;28;20190;-91
2023/10/25 10:31:14;;;;;;;8.90;1.98;;;13.20;99.90;;;;;;5019771;28;20222;-93
2023/10/25 10:33:48;;;;;;;4.30;1.58;;;13.20;99.90;;;;;;4999519;28;20197;-94
2023/10/25 10:36:30;;;;;;;2.85;1.42;;;13.20;99.90;;;;;;5024520;28;20222;-95
2023/10/25 10:39:21;;;;;;;5.53;1.40;;;13.20;99.90;;;;;;5005515;28;20233;-90
2023/10/25 10:41:47;;;;;;;4.32;1.33;;;13.20;99.90;;;;;;5004178;28;20183;-91
2023/10/25 10:44:13;;;;;;;7.20;1.55;;;13.10;99.90;;;;;;5019683;28;20176;-94
2023/10/25 10:47:00;;;;;;;4.90;1.33;;;13.20;99.90;;;;;;5034134;28;20209;-93
2023/10/25 10:49:30;;;;;;;5.28;1.20;;;13.20;99.90;;;;;;5030910;28;20652;-91
2023/10/25 10:51:56;;;;;;;4.63;1.33;;;13.30;99.90;;;;;;5033839;28;20224;-91
2023/10/25 10:54:23;;;;;;;5.30;1.60;;;13.40;99.90;;;;;;5012898;28;20291;-90
2023/10/25 10:56:49;;;;;;;4.88;1.77;;;13.60;99.90;;;;;;5025680;28;20195;-89
2023/10/25 10:59:15;;;;;;;3.35;1.77;;;13.70;99.90;;;;;;5035930;28;20190;-92
2023/10/25 11:02:00;;;;;;;5.22;1.95;;;13.70;99.90;;;;;;5020295;28;20199;-90
2023/10/25 11:04:26;;;;;;;3.58;1.38;;;13.70;99.90;;;;;;5021615;28;20218;-91
2023/10/25 11:06:52;;;;;;;8.38;2.10;;;13.80;99.90;;;;;;5026640;28;20179;-89
2023/10/25 11:09:17;;;;;;;3.97;1.60;;;13.70;99.90;;;;;;5017161;28;20187;-92
2023/10/25 11:11:45;;;;;;;4.93;1.73;;;13.80;99.90;;;;;;5017587;28;20218;-91
2023/10/25 11:14:11;;;;;;;4.82;1.30;;;13.80;99.90;;;;;;5015506;28;20183;-89
2023/10/25 11:16:37;;;;;;;10.18;1.40;;;13.80;99.90;;;;;;5023986;28;20260;-92
2023/10/25 11:19:08;;;;;;;3.30;1.27;;;13.80;99.90;;;;;;5015088;28;20187;-92
2023/10/25 11:21:34;;;;;;;3.20;1.50;;;13.90;99.90;;;;;;5027230;28;20666;-91
2023/10/25 11:24:06;;;;;;;3.58;1.40;;;13.90;99.90;;;;;;5017785;28;20187;-91
2023/10/25 11:26:37;;;;;;;4.32;1.13;;;13.90;99.90;;;;;;5012052;28;20194;-92
2023/10/25 11:29:03;;;;;;;3.90;1.20;;;13.70;99.90;;;;;;5014971;28;20290;-92
2023/10/25 11:31:32;;;;;;;5.53;1.40;;;13.70;99.90;;;;;;5024537;28;20868;-92
2023/10/25 11:33:58;;;;;;;4.80;1.13;;;13.80;99.90;;;;;;5020585;28;20185;-89
2023/10/25 11:36:27;;;;;;;11.50;1.63;;;13.90;99.90;;;;;;5016349;28;20276;-92
2023/10/25 11:38:59;;;;;;;3.47;1.00;;;14.20;99.90;;;;;;5017333;28;20518;-95
2023/10/25 11:41:32;;;;;;;6.10;1.13;;;14.40;99.90;;;;;;5014881;28;20215;-89
2023/10/25 11:44:00;;;;;;;6.95;1.00;;;14.50;99.90;;;;;;5016891;28;20179;-91
2023/10/25 11:46:44;;;;;;;3.97;1.10;;;14.50;99.90;;;;;;5013988;28;20193;-91
2023/10/25 11:49:10;;;;;;;4.75;1.05;;;14.40;99.90;;;;;;5021156;28;20183;-91
2023/10/25 11:51:38;;;;;;;4.60;1.33;;;14.30;99.90;;;;;;5024555;28;20275;-90
2023/10/25 11:54:04;;;;;;;5.38;1.20;;;14.20;99.90;;;;;;5013214;28;20187;-93
2023/10/25 11:56:30;;;;;;;1.67;0.68;;;14.30;99.90;;;;;;5026122;28;20213;-91
2023/10/25 11:58:56;;;;;;;3.20;0.95;;;14.40;99.90;;;;;;5025409;28;20197;-90
2023/10/25 12:01:24;;;;;;;1.35;0.70;;;14.60;99.90;;;;;;5028037;28;20178;-91
2023/10/25 12:03:52;;;;;;;3.42;0.82;;;14.70;99.90;;;;;;5029763;28;20188;-89
2023/10/25 12:06:18;;;;;;;3.58;0.80;;;14.90;99.90;;;;;;5006830;28;20512;-90
2023/10/25 12:08:44;;;;;;;5.95;1.50;;;15.00;99.90;;;;;;5016533;28;20194;-91
2023/10/25 12:11:26;;;;;;;3.65;1.00;;;15.10;99.90;;;;;;5018211;28;20219;-92
2023/10/25 12:13:53;;;;;;;5.05;0.90;;;15.20;99.90;;;;;;5022826;28;20183;-93
2023/10/25 12:16:19;;;;;;;2.63;0.75;;;15.10;99.90;;;;;;5022765;28;20302;-90
2023/10/25 12:18:44;;;;;;;1.88;0.60;;;15.00;99.90;;;;;;5016164;28;20233;-94
2023/10/25 12:21:10;;;;;;;3.80;0.75;;;14.90;99.90;;;;;;4974056;28;1220554;-96
2023/10/25 12:23:37;;;;;;;4.15;1.40;;;14.80;99.90;;;;;;5028904;28;20214;-92
2023/10/25 12:26:02;;;;;;;2.47;0.77;;;14.60;99.90;;;;;;5020874;28;20183;-91
2023/10/25 12:28:28;;;;;;;8.63;1.00;;;14.60;99.90;;;;;;5025063;28;20199;-92
2023/10/25 12:30:54;;;;;;;2.40;0.80;;;14.60;99.90;;;;;;5018920;28;20614;-92
2023/10/25 12:33:20;;;;;;;3.00;0.93;;;14.60;99.90;;;;;;5014407;28;20187;-93
2023/10/25 12:35:49;;;;;;;3.33;1.30;;;14.60;99.90;;;;;;5021536;28;20660;-94
2023/10/25 12:38:15;;;;;;;4.10;1.00;;;14.70;99.90;;;;;;5015932;28;20195;-95
2023/10/25 12:40:41;;;;;;;4.10;0.90;;;14.60;99.90;;;;;;5031866;28;20288;-93
2023/10/25 12:43:09;;;;;;;2.58;0.80;;;14.70;99.90;;;;;;5023812;28;20186;-91
2023/10/25 12:45:35;;;;;;;2.35;0.80;;;14.70;99.90;;;;;;5025116;28;20310;-95
2023/10/25 12:48:03;;;;;;;5.60;1.20;;;14.70;99.90;;;;;;5003958;28;20610;-96
2023/10/25 12:50:30;;;;;;;3.65;0.90;;;14.60;99.90;;;;;;5031099;28;20190;-95
2023/10/25 12:53:17;;;;;;;3.40;0.77;;;14.60;99.90;;;;;;5045346;28;20217;-95
2023/10/25 12:55:43;;;;;;;3.70;0.80;;;14.60;99.90;;;;;;5015922;28;20190;-96